createdAt,value
2018-08-14T00:00:27.678Z,14.33
2018-08-14T00:02:56.067Z,14.87
2018-08-14T00:05:24.138Z,14.33
2018-08-14T00:07:52.231Z,15.93
2018-08-14T00:10:20.583Z,16.50
2018-08-14T00:12:48.670Z,17.50
2018-08-14T00:15:16.755Z,18.10
2018-08-14T00:17:46.891Z,17.97
2018-08-14T00:20:16.322Z,17.70
2018-08-14T00:22:44.823Z,16.27
2018-08-14T00:25:12.899Z,16.77
2018-08-14T00:27:40.994Z,16.20
2018-08-14T00:30:15.138Z,17.20
2018-08-14T00:32:43.219Z,17.00
2018-08-14T00:35:11.327Z,15.50
2018-08-14T00:37:39.699Z,14.33
2018-08-14T00:40:10.514Z,13.90
2018-08-14T00:42:38.595Z,14.97
2018-08-14T00:45:09.111Z,13.60
2018-08-14T00:47:37.187Z,13.23
2018-08-14T00:50:06.487Z,12.90
2018-08-14T00:52:34.714Z,14.23
2018-08-14T00:55:02.990Z,14.23
2018-08-14T00:57:31.059Z,16.50
2018-08-14T00:59:59.118Z,14.33
2018-08-14T01:02:27.196Z,14.53
2018-08-14T01:04:55.255Z,13.93
2018-08-14T01:07:23.607Z,14.97
2018-08-14T01:09:51.671Z,17.03
2018-08-14T01:12:19.738Z,14.83
2018-08-14T01:14:47.806Z,15.53
2018-08-14T01:17:15.887Z,14.10
2018-08-14T01:19:43.967Z,15.40
2018-08-14T01:22:12.122Z,14.83
2018-08-14T01:24:40.178Z,13.90
2018-08-14T01:27:08.241Z,13.43
2018-08-14T01:29:36.306Z,13.60
2018-08-14T01:32:04.378Z,12.83
2018-08-14T01:34:32.456Z,11.87
2018-08-14T01:37:00.510Z,11.50
2018-08-14T01:39:28.582Z,11.47
2018-08-14T01:41:56.639Z,10.67
2018-08-14T01:44:24.706Z,11.13
2018-08-14T01:46:52.774Z,12.77
2018-08-14T01:49:20.826Z,11.10
2018-08-14T01:51:48.910Z,12.77
2018-08-14T01:54:16.978Z,12.10
2018-08-14T01:56:45.035Z,12.60
2018-08-14T01:59:13.111Z,10.83
2018-08-14T02:01:41.166Z,10.27
2018-08-14T02:04:09.531Z,13.63
2018-08-14T02:06:37.618Z,11.53
2018-08-14T02:09:08.021Z,11.10
2018-08-14T02:11:36.087Z,11.13
2018-08-14T02:14:04.367Z,11.60
2018-08-14T02:16:32.462Z,10.77
2018-08-14T02:19:00.523Z,10.97
2018-08-14T02:21:28.591Z,11.07
2018-08-14T02:23:56.674Z,11.23
2018-08-14T02:26:34.471Z,11.20
2018-08-14T02:29:02.530Z,10.07
2018-08-14T02:31:30.671Z,10.13
2018-08-14T02:33:58.745Z,10.40
2018-08-14T02:36:26.804Z,9.67
2018-08-14T02:38:54.905Z,10.57
2018-08-14T02:41:22.990Z,10.77
2018-08-14T02:43:51.078Z,12.10
2018-08-14T02:46:19.144Z,10.87
2018-08-14T02:48:47.227Z,11.53
2018-08-14T02:51:15.318Z,11.13
2018-08-14T02:53:43.395Z,11.07
2018-08-14T02:56:11.462Z,14.37
2018-08-14T02:58:39.547Z,12.77
2018-08-14T03:01:07.639Z,12.43
2018-08-14T03:03:35.732Z,14.73
2018-08-14T03:06:03.814Z,14.30
2018-08-14T03:08:31.895Z,12.87
2018-08-14T03:10:59.976Z,13.67
2018-08-14T03:13:28.078Z,15.13
2018-08-14T03:15:56.159Z,15.70
2018-08-14T03:18:24.239Z,16.00
2018-08-14T03:20:52.327Z,15.60
2018-08-14T03:23:20.415Z,13.60
2018-08-14T03:25:48.499Z,13.17
2018-08-14T03:28:16.571Z,11.87
2018-08-14T03:30:44.991Z,12.43
2018-08-14T03:33:13.010Z,14.83
2018-08-14T03:35:41.089Z,15.50
2018-08-14T03:38:09.416Z,15.83
2018-08-14T03:40:37.494Z,16.57
2018-08-14T03:43:05.569Z,16.67
2018-08-14T03:45:36.646Z,17.17
2018-08-14T03:48:05.566Z,15.83
2018-08-14T03:50:33.702Z,17.87
2018-08-14T03:53:01.778Z,16.17
2018-08-14T03:55:29.862Z,16.33
2018-08-14T03:57:57.926Z,15.67
2018-08-14T04:00:28.794Z,15.97
2018-08-14T04:02:57.470Z,15.77
2018-08-14T04:05:25.560Z,15.53
2018-08-14T04:07:53.635Z,14.87
2018-08-14T04:10:21.718Z,14.37
2018-08-14T04:12:49.790Z,13.80
2018-08-14T04:15:17.874Z,14.33
2018-08-14T04:17:45.971Z,14.10
2018-08-14T04:20:14.414Z,13.13
2018-08-14T04:22:42.744Z,12.93
2018-08-14T04:25:11.515Z,11.37
2018-08-14T04:27:40.092Z,13.27
2018-08-14T04:30:10.895Z,11.17
2018-08-14T04:32:38.972Z,11.63
2018-08-14T04:35:07.055Z,11.50
2018-08-14T04:37:35.129Z,11.40
2018-08-14T04:40:03.230Z,11.53
2018-08-14T04:42:31.310Z,11.07
2018-08-14T04:44:59.390Z,11.27
2018-08-14T04:47:27.463Z,11.60
2018-08-14T04:49:55.559Z,10.50
2018-08-14T04:52:23.618Z,9.70
2018-08-14T04:54:51.701Z,9.97
2018-08-14T04:57:19.778Z,9.30
2018-08-14T04:59:47.859Z,11.50
2018-08-14T05:02:15.931Z,9.27
2018-08-14T05:04:44.007Z,12.73
2018-08-14T05:07:12.098Z,19.40
2018-08-14T05:09:40.162Z,7.73
2018-08-14T05:12:08.243Z,7.40
2018-08-14T05:14:36.323Z,8.37
2018-08-14T05:17:05.222Z,4.80
2018-08-14T05:19:33.303Z,6.87
2018-08-14T05:22:01.615Z,7.63
2018-08-14T05:24:29.682Z,4.73
2018-08-14T05:26:57.771Z,9.47
2018-08-14T05:29:25.871Z,7.17
2018-08-14T05:31:53.946Z,7.53
2018-08-14T05:34:22.019Z,10.77
2018-08-14T05:36:50.098Z,6.87
2018-08-14T05:39:18.170Z,7.23
2018-08-14T05:41:46.250Z,6.70
2018-08-14T05:44:24.455Z,8.90
2018-08-14T05:46:52.526Z,6.50
2018-08-14T05:49:20.598Z,7.50
2018-08-14T05:51:48.819Z,5.57
2018-08-14T05:54:16.919Z,8.83
2018-08-14T05:56:45.883Z,4.60
2018-08-14T05:59:13.969Z,10.03
2018-08-14T06:01:42.740Z,4.00
2018-08-14T06:04:11.211Z,6.40
2018-08-14T06:06:39.436Z,5.13
2018-08-14T06:09:09.700Z,6.47
2018-08-14T06:11:37.779Z,6.83
2018-08-14T06:14:06.295Z,3.53
2018-08-14T06:16:34.386Z,3.40
2018-08-14T06:19:02.461Z,4.23
2018-08-14T06:21:30.543Z,6.00
2018-08-14T06:23:58.619Z,5.17
2018-08-14T06:26:26.795Z,4.77
2018-08-14T06:28:54.986Z,4.90
2018-08-14T06:31:23.055Z,3.50
2018-08-14T06:33:51.144Z,3.93
2018-08-14T06:36:19.231Z,5.53
2018-08-14T06:38:47.307Z,4.13
2018-08-14T06:41:15.430Z,3.67
2018-08-14T06:43:43.458Z,3.20
2018-08-14T06:46:11.539Z,3.33
2018-08-14T06:48:39.626Z,5.93
2018-08-14T06:51:07.915Z,4.23
2018-08-14T06:53:35.992Z,3.07
2018-08-14T06:56:04.320Z,3.10
2018-08-14T06:58:32.654Z,3.07
2018-08-14T07:01:00.732Z,3.00
2018-08-14T07:03:29.010Z,3.17
2018-08-14T07:05:57.078Z,2.97
2018-08-14T07:08:25.150Z,3.30
2018-08-14T07:10:53.222Z,3.40
2018-08-14T07:13:21.295Z,3.53
2018-08-14T07:15:49.363Z,3.00
2018-08-14T07:18:17.447Z,3.30
2018-08-14T07:20:45.506Z,3.00
2018-08-14T07:23:13.578Z,3.43
2018-08-14T07:25:41.650Z,4.70
2018-08-14T07:28:09.743Z,2.80
2018-08-14T07:30:37.815Z,2.80
2018-08-14T07:33:05.898Z,3.17
2018-08-14T07:35:33.966Z,3.20
2018-08-14T07:38:02.043Z,2.90
2018-08-14T07:40:30.110Z,2.90
2018-08-14T07:42:58.190Z,3.50
2018-08-14T07:45:26.263Z,2.67
2018-08-14T07:47:54.366Z,3.20
2018-08-14T07:50:22.431Z,3.07
2018-08-14T07:52:50.507Z,3.00
2018-08-14T07:55:18.567Z,2.80
2018-08-14T07:57:46.666Z,3.50
2018-08-14T08:00:18.490Z,2.93
2018-08-14T08:02:47.395Z,2.77
2018-08-14T08:05:15.663Z,3.13
2018-08-14T08:07:43.764Z,2.67
2018-08-14T08:10:13.643Z,3.87
2018-08-14T08:12:41.719Z,2.90
2018-08-14T08:15:11.759Z,3.00
2018-08-14T08:17:40.422Z,3.00
2018-08-14T08:20:11.107Z,2.40
2018-08-14T08:22:39.180Z,3.40
2018-08-14T08:25:07.599Z,3.03
2018-08-14T08:27:35.670Z,2.57
2018-08-14T08:30:05.519Z,3.17
2018-08-14T08:32:33.603Z,2.70
2018-08-14T08:35:02.523Z,2.90
2018-08-14T08:37:30.599Z,3.73
2018-08-14T08:39:58.667Z,2.63
2018-08-14T08:42:26.743Z,2.60
2018-08-14T08:44:54.810Z,2.90
2018-08-14T08:47:23.103Z,2.23
2018-08-14T08:49:51.166Z,2.80
2018-08-14T08:52:19.353Z,3.20
2018-08-14T08:54:47.413Z,3.03
2018-08-14T08:57:15.503Z,2.60
2018-08-14T08:59:43.612Z,2.40
2018-08-14T09:02:11.826Z,2.77
2018-08-14T09:04:40.312Z,4.10
2018-08-14T09:07:08.711Z,2.27
2018-08-14T09:09:36.791Z,2.40
2018-08-14T09:12:05.401Z,2.53
2018-08-14T09:14:33.482Z,2.60
2018-08-14T09:17:01.568Z,2.47
2018-08-14T09:19:29.759Z,2.40
2018-08-14T09:21:57.835Z,2.47
2018-08-14T09:24:25.915Z,3.10
2018-08-14T09:26:54.250Z,2.40
2018-08-14T09:29:22.359Z,2.80
2018-08-14T09:31:50.467Z,2.43
2018-08-14T09:34:18.539Z,2.53
2018-08-14T09:36:46.658Z,2.50
2018-08-14T09:39:15.019Z,2.50
2018-08-14T09:41:43.311Z,2.87
2018-08-14T09:44:11.435Z,2.40
2018-08-14T09:46:39.511Z,2.50
2018-08-14T09:49:09.034Z,1.80
2018-08-14T09:51:37.106Z,2.60
2018-08-14T09:54:05.199Z,2.20
2018-08-14T09:56:33.285Z,2.30
2018-08-14T09:59:01.367Z,2.60
2018-08-14T10:01:35.021Z,2.40
2018-08-14T10:04:08.542Z,2.33
2018-08-14T10:06:42.043Z,2.17
2018-08-14T10:09:10.638Z,2.27
2018-08-14T10:11:38.715Z,2.20
2018-08-14T10:14:06.790Z,2.30
2018-08-14T10:16:34.862Z,2.00
2018-08-14T10:19:02.938Z,2.27
2018-08-14T10:21:31.011Z,2.33
2018-08-14T10:23:59.092Z,2.27
2018-08-14T10:26:27.170Z,2.20
2018-08-14T10:28:55.638Z,2.20
2018-08-14T10:31:23.607Z,2.57
2018-08-14T10:33:51.679Z,2.20
2018-08-14T10:36:19.748Z,1.90
2018-08-14T10:38:47.827Z,2.23
2018-08-14T10:41:15.978Z,2.13
2018-08-14T10:43:44.075Z,1.90
2018-08-14T10:46:12.204Z,2.13
2018-08-14T10:48:40.541Z,2.00
2018-08-14T10:51:08.629Z,2.07
2018-08-14T10:53:36.696Z,1.97
2018-08-14T10:56:04.871Z,1.90
2018-08-14T10:58:32.960Z,2.50
2018-08-14T11:01:01.022Z,1.90
2018-08-14T11:03:29.526Z,2.20
2018-08-14T11:05:57.608Z,2.40
2018-08-14T11:08:25.674Z,2.00
2018-08-14T11:10:59.162Z,2.03
2018-08-14T11:13:27.240Z,2.00
2018-08-14T11:15:55.315Z,2.03
2018-08-14T11:18:23.391Z,1.90
2018-08-14T11:20:51.470Z,2.30
2018-08-14T11:23:19.535Z,5.27
2018-08-14T11:25:47.658Z,7.23
2018-08-14T11:28:15.739Z,3.47
2018-08-14T11:30:43.839Z,3.73
2018-08-14T11:33:11.903Z,2.97
2018-08-14T11:35:45.518Z,2.20
2018-08-14T11:38:13.595Z,2.13
2018-08-14T11:40:41.666Z,3.07
2018-08-14T11:43:09.759Z,5.27
2018-08-14T11:45:37.831Z,2.63
2018-08-14T11:48:05.960Z,2.30
2018-08-14T11:50:34.033Z,2.33
2018-08-14T11:53:02.112Z,3.70
2018-08-14T11:55:30.494Z,2.27
2018-08-14T11:57:58.557Z,2.33
2018-08-14T12:00:26.896Z,2.40
2018-08-14T12:02:56.177Z,3.47
2018-08-14T12:05:24.717Z,8.30
2018-08-14T12:07:53.059Z,9.63
2018-08-14T12:10:22.182Z,9.27
2018-08-14T12:12:50.611Z,5.77
2018-08-14T12:15:18.654Z,2.93
2018-08-14T12:17:47.542Z,2.47
2018-08-14T12:20:16.999Z,11.70
2018-08-14T12:22:45.067Z,4.77
2018-08-14T12:25:14.554Z,3.73
2018-08-14T12:27:42.623Z,5.53
2018-08-14T12:30:14.283Z,3.33
2018-08-14T12:32:42.443Z,7.10
2018-08-14T12:35:10.888Z,7.17
2018-08-14T12:37:39.814Z,9.80
2018-08-14T12:40:09.198Z,9.60
2018-08-14T12:42:37.496Z,6.47
2018-08-14T12:45:11.103Z,4.30
2018-08-14T12:47:39.188Z,7.57
2018-08-14T12:50:07.307Z,4.37
2018-08-14T12:52:35.391Z,8.20
2018-08-14T12:55:03.458Z,6.43
2018-08-14T12:57:31.539Z,7.37
2018-08-14T12:59:59.619Z,7.13
2018-08-14T13:02:27.707Z,5.90
2018-08-14T13:04:55.802Z,4.03
2018-08-14T13:07:23.862Z,6.33
2018-08-14T13:09:51.969Z,2.87
2018-08-14T13:12:20.015Z,3.47
2018-08-14T13:14:48.082Z,3.97
2018-08-14T13:17:16.224Z,3.00
2018-08-14T13:19:44.293Z,4.53
2018-08-14T13:22:12.387Z,11.00
2018-08-14T13:24:40.459Z,4.80
2018-08-14T13:27:08.543Z,5.37
2018-08-14T13:29:36.613Z,3.00
2018-08-14T13:32:04.695Z,1.83
2018-08-14T13:34:32.777Z,3.27
2018-08-14T13:37:00.986Z,3.77
2018-08-14T13:39:29.051Z,3.37
2018-08-14T13:41:57.141Z,6.67
2018-08-14T13:44:25.205Z,6.13
2018-08-14T13:46:53.304Z,3.10
2018-08-14T13:49:21.654Z,2.57
2018-08-14T13:51:49.739Z,2.03
2018-08-14T13:54:17.834Z,2.07
2018-08-14T13:56:45.927Z,3.30
2018-08-14T13:59:14.095Z,3.00
2018-08-14T14:01:42.577Z,2.40
2018-08-14T14:04:10.642Z,2.47
2018-08-14T14:06:38.719Z,1.53
2018-08-14T14:09:06.783Z,2.30
2018-08-14T14:11:34.898Z,2.47
2018-08-14T14:14:03.395Z,3.50
2018-08-14T14:16:31.486Z,7.80
2018-08-14T14:18:59.789Z,2.40
2018-08-14T14:21:27.874Z,2.67
2018-08-14T14:23:55.941Z,2.10
2018-08-14T14:26:24.023Z,2.43
2018-08-14T14:28:52.148Z,1.70
2018-08-14T14:31:20.235Z,1.70
2018-08-14T14:33:48.303Z,1.60
2018-08-14T14:36:16.371Z,2.73
2018-08-14T14:38:44.458Z,2.13
2018-08-14T14:41:12.539Z,1.33
2018-08-14T14:43:40.623Z,1.87
2018-08-14T14:46:08.683Z,1.43
2018-08-14T14:48:36.766Z,3.00
2018-08-14T14:51:04.838Z,3.13
2018-08-14T14:53:32.920Z,3.63
2018-08-14T14:56:00.997Z,2.43
2018-08-14T14:58:29.318Z,5.27
2018-08-14T15:00:57.510Z,4.23
2018-08-14T15:03:25.582Z,6.07
2018-08-14T15:05:53.662Z,4.37
2018-08-14T15:08:23.137Z,5.80
2018-08-14T15:10:51.218Z,9.07
2018-08-14T15:13:20.818Z,4.30
2018-08-14T15:15:48.907Z,2.23
2018-08-14T15:18:16.998Z,4.13
2018-08-14T15:20:45.059Z,4.97
2018-08-14T15:23:13.130Z,2.37
2018-08-14T15:25:41.218Z,3.87
2018-08-14T15:29:16.948Z,3.73
2018-08-14T15:31:46.956Z,3.10
2018-08-14T15:34:19.615Z,2.30
2018-08-14T15:36:49.835Z,5.60
2018-08-14T15:39:19.057Z,5.47
2018-08-14T15:41:47.191Z,2.20
2018-08-14T15:44:15.346Z,1.90
2018-08-14T15:46:43.442Z,3.17
2018-08-14T15:49:12.050Z,4.33
2018-08-14T15:51:40.772Z,6.33
2018-08-14T15:54:09.718Z,2.70
2018-08-14T15:56:38.095Z,4.00
2018-08-14T15:59:06.270Z,4.03
2018-08-14T16:01:34.746Z,3.40
2018-08-14T16:04:03.223Z,6.27
2018-08-14T16:06:31.511Z,9.47
2018-08-14T16:08:59.975Z,2.07
2018-08-14T16:11:28.254Z,5.10
2018-08-14T16:14:03.057Z,8.73
2018-08-14T16:16:31.190Z,2.70
2018-08-14T16:18:59.581Z,5.27
2018-08-14T16:21:27.688Z,4.77
2018-08-14T16:23:56.199Z,5.30
2018-08-14T16:26:24.654Z,2.10
2018-08-14T16:28:53.652Z,3.73
2018-08-14T16:31:21.973Z,3.73
2018-08-14T16:33:50.039Z,3.33
2018-08-14T16:36:18.223Z,5.90
2018-08-14T16:38:46.695Z,4.17
2018-08-14T16:41:14.874Z,1.53
2018-08-14T16:43:42.960Z,3.83
2018-08-14T16:46:11.038Z,2.77
2018-08-14T16:48:39.150Z,2.70
2018-08-14T16:51:07.237Z,2.10
2018-08-14T16:53:35.302Z,2.47
2018-08-14T16:56:03.383Z,4.03
2018-08-14T16:58:31.563Z,4.00
2018-08-14T17:00:59.642Z,2.60
2018-08-14T17:03:27.710Z,2.60
2018-08-14T17:05:58.736Z,2.37
2018-08-14T17:08:27.585Z,2.60
2018-08-14T17:10:55.964Z,2.17
2018-08-14T17:13:24.067Z,2.50
2018-08-14T17:15:52.147Z,1.67
2018-08-14T17:18:20.530Z,1.90
2018-08-14T17:20:47.725Z,1.80
2018-08-14T17:23:15.799Z,4.60
2018-08-14T17:25:43.890Z,1.87
2018-08-14T17:28:11.999Z,1.43
2018-08-14T17:30:40.137Z,1.63
2018-08-14T17:33:08.449Z,3.13
2018-08-14T17:35:36.522Z,4.93
2018-08-14T17:38:04.606Z,4.53
2018-08-14T17:40:32.686Z,2.13
2018-08-14T17:43:00.790Z,1.53
2018-08-14T17:45:30.048Z,2.37
2018-08-14T17:48:01.246Z,3.23
2018-08-14T17:50:29.886Z,3.30
2018-08-14T17:52:57.995Z,4.67
2018-08-14T17:55:26.331Z,2.03
2018-08-14T17:57:54.562Z,5.67
2018-08-14T18:00:25.160Z,4.60
2018-08-14T18:02:57.708Z,3.70
2018-08-14T18:05:25.784Z,65.47
2018-08-14T18:07:53.872Z,10.37
2018-08-14T18:10:22.942Z,5.63
2018-08-14T18:12:51.090Z,6.03
2018-08-14T18:15:19.647Z,4.97
2018-08-14T18:17:47.884Z,4.33
2018-08-14T18:20:17.210Z,5.20
2018-08-14T18:22:45.322Z,2.47
2018-08-14T18:25:15.051Z,3.03
2018-08-14T18:27:43.439Z,4.27
2018-08-14T18:30:12.777Z,3.27
2018-08-14T18:32:40.858Z,1.80
2018-08-14T18:35:09.379Z,2.33
2018-08-14T18:37:37.563Z,2.73
2018-08-14T18:40:09.040Z,3.50
2018-08-14T18:42:37.127Z,8.27
2018-08-14T18:45:06.828Z,2.77
2018-08-14T18:47:34.906Z,2.60
2018-08-14T18:50:03.094Z,3.27
2018-08-14T18:52:31.431Z,5.27
2018-08-14T18:54:59.519Z,4.30
2018-08-14T18:57:27.603Z,2.70
2018-08-14T18:59:55.669Z,2.80
2018-08-14T19:02:23.754Z,4.70
2018-08-14T19:04:51.831Z,3.83
2018-08-14T19:07:20.088Z,3.73
2018-08-14T19:09:48.185Z,5.90
2018-08-14T19:12:16.265Z,6.20
2018-08-14T19:14:44.337Z,3.13
2018-08-14T19:17:12.446Z,4.00
2018-08-14T19:19:40.531Z,5.23
2018-08-14T19:22:09.014Z,3.27
2018-08-14T19:24:37.170Z,7.83
2018-08-14T19:27:05.258Z,3.50
2018-08-14T19:29:33.339Z,3.07
2018-08-14T19:32:01.431Z,5.40
2018-08-14T19:34:29.519Z,6.40
2018-08-14T19:36:57.683Z,7.47
2018-08-14T19:39:25.694Z,4.13
2018-08-14T19:41:53.787Z,5.70
2018-08-14T19:44:21.971Z,5.20
2018-08-14T19:46:50.092Z,3.43
2018-08-14T19:49:18.138Z,4.67
2018-08-14T19:51:46.215Z,3.60
2018-08-14T19:54:14.291Z,4.30
2018-08-14T19:56:42.383Z,4.43
2018-08-14T19:59:10.461Z,2.77
2018-08-14T20:01:38.522Z,3.53
2018-08-14T20:04:06.615Z,2.43
2018-08-14T20:06:34.795Z,2.53
2018-08-14T20:09:02.869Z,2.63
2018-08-14T20:11:31.280Z,4.73
2018-08-14T20:13:59.282Z,2.43
2018-08-14T20:16:27.370Z,3.23
2018-08-14T20:18:55.463Z,2.93
2018-08-14T20:21:23.535Z,4.60
2018-08-14T20:23:51.615Z,5.23
2018-08-14T20:26:19.707Z,2.70
2018-08-14T20:28:47.785Z,3.17
2018-08-14T20:31:15.858Z,3.40
2018-08-14T20:33:43.943Z,2.57
2018-08-14T20:36:12.026Z,4.30
2018-08-14T20:38:40.103Z,3.70
2018-08-14T20:41:08.170Z,1.77
2018-08-14T20:43:36.250Z,4.00
2018-08-14T20:46:04.344Z,3.17
2018-08-14T20:48:32.427Z,4.53
2018-08-14T20:51:00.495Z,5.17
2018-08-14T20:53:28.574Z,3.33
2018-08-14T20:55:56.691Z,7.07
2018-08-14T20:58:24.734Z,4.53
2018-08-14T21:00:52.819Z,2.37
2018-08-14T21:03:20.891Z,4.37
2018-08-14T21:05:48.962Z,5.70
2018-08-14T21:08:17.046Z,2.47
2018-08-14T21:10:45.127Z,3.57
2018-08-14T21:13:13.229Z,3.03
2018-08-14T21:15:46.721Z,4.10
2018-08-14T21:18:14.815Z,3.00
2018-08-14T21:20:42.903Z,3.70
2018-08-14T21:23:10.990Z,3.10
2018-08-14T21:25:39.299Z,2.77
2018-08-14T21:28:07.392Z,3.60
2018-08-14T21:30:35.470Z,3.10
2018-08-14T21:33:03.559Z,4.37
2018-08-14T21:35:31.659Z,3.77
2018-08-14T21:37:59.736Z,6.90
2018-08-14T21:40:27.810Z,5.77
2018-08-14T21:42:55.875Z,7.67
2018-08-14T21:45:23.983Z,8.80
2018-08-14T21:47:52.055Z,8.70
2018-08-14T21:50:20.142Z,4.03
2018-08-14T21:52:48.215Z,5.53
2018-08-14T21:55:16.319Z,2.93
2018-08-14T21:57:44.957Z,5.00
2018-08-14T22:00:20.030Z,4.90
2018-08-14T22:02:48.122Z,4.03
2018-08-14T22:05:16.859Z,3.77
2018-08-14T22:07:45.431Z,5.57
2018-08-14T22:10:14.741Z,5.13
2018-08-14T22:12:42.823Z,5.87
2018-08-14T22:15:11.047Z,3.17
2018-08-14T22:17:39.127Z,3.30
2018-08-14T22:20:09.611Z,3.10
2018-08-14T22:22:37.683Z,4.43
2018-08-14T22:25:06.099Z,4.17
2018-08-14T22:27:34.176Z,5.60
2018-08-14T22:30:02.266Z,3.30
2018-08-14T22:32:30.367Z,4.13
2018-08-14T22:34:58.452Z,4.13
2018-08-14T22:37:26.626Z,3.43
2018-08-14T22:39:54.704Z,3.73
2018-08-14T22:42:23.038Z,3.50
2018-08-14T22:44:51.539Z,2.37
2018-08-14T22:47:19.606Z,4.27
2018-08-14T22:49:47.687Z,2.43
2018-08-14T22:52:15.763Z,4.13
2018-08-14T22:54:43.853Z,4.40
2018-08-14T22:57:11.925Z,3.90
2018-08-14T22:59:39.994Z,3.37
2018-08-14T23:02:08.067Z,2.40
2018-08-14T23:04:36.151Z,3.37
2018-08-14T23:07:04.436Z,4.87
2018-08-14T23:09:32.514Z,3.57
2018-08-14T23:12:00.596Z,3.60
2018-08-14T23:14:28.695Z,2.30
2018-08-14T23:16:56.774Z,3.70
2018-08-14T23:19:24.846Z,3.10
2018-08-14T23:21:52.926Z,3.47
2018-08-14T23:24:20.998Z,2.67
2018-08-14T23:26:49.071Z,3.27
2018-08-14T23:29:17.219Z,3.73
2018-08-14T23:31:45.310Z,4.43
2018-08-14T23:34:13.379Z,2.53
2018-08-14T23:36:41.462Z,2.57
2018-08-14T23:39:11.752Z,2.93
2018-08-14T23:41:40.091Z,2.40
2018-08-14T23:44:08.166Z,4.90
2018-08-14T23:46:36.270Z,2.70
2018-08-14T23:49:04.346Z,2.23
2018-08-14T23:51:33.390Z,2.30
2018-08-14T23:54:01.489Z,3.43
2018-08-14T23:56:29.586Z,3.87
2018-08-14T23:58:57.978Z,2.03
